METAR Data
IDs: Format: Raw Decoded Include TAF

Data at: 1441 UTC 27 Nov 2021

SBSP 271400Z 30009KT 9999 BKN046 26/14 Q1009